This is the latest recevied weather packets stored in our database for station/object KI6PPU. If no packets are shown the sender has not sent any weather packets the latest 10 day(s).
| Time | Temp. | Humidity | Pressure | Rain* | Wind** | Luminosity | Snow |
|---|---|---|---|---|---|---|---|
| 1787754891 | 18.33° C | 57% | 1018.4 hPa | 0 mm | - | 72 W/m² | - |
| 1787754590 | 17.22° C | 60% | 1018.4 hPa | 0 mm | - | 55 W/m² | - |
| 1787754289 | 16.67° C | 61% | 1018.3 hPa | 0 mm | - | 39 W/m² | - |
| 1787753984 | 16.67° C | 61% | 1018.4 hPa | 0 mm | - | 37 W/m² | - |
| 1787753683 | 16.11° C | 62% | 1018.2 hPa | 0 mm | - | 32 W/m² | - |
| 1787753382 | 15.56° C | 62% | 1018.2 hPa | 0 mm | - | 26 W/m² | - |
| 1787753077 | 15.56° C | 63% | 1018.2 hPa | 0 mm | - | 22 W/m² | - |
| 1787752776 | 15° C | 64% | 1018.4 hPa | 0 mm | - | 18 W/m² | - |
| 1787752471 | 14.44° C | 66% | 1018.2 hPa | 0 mm | - | 15 W/m² | - |
| 1787752166 | 14.44° C | 66% | 1018 hPa | 0 mm | - | 10 W/m² | - |
| 1787751865 | 14.44° C | 66% | 1018.3 hPa | 0 mm | - | 6 W/m² | - |
| 1787751561 | 14.44° C | 66% | 1018.2 hPa | 0 mm | - | 4 W/m² | - |
| 1787751255 | 14.44° C | 66% | 1018.2 hPa | 0 mm | - | 1 W/m² | - |
| 1787750951 | 14.44° C | 66% | 1018 hPa | 0 mm | - | 0 W/m² | - |
| 1787750647 | 13.89° C | 66% | 1018.1 hPa | 0 mm | - | 0 W/m² | - |
| 1787750341 | 13.89° C | 66% | 1017.9 hPa | 0 mm | - | 0 W/m² | - |
| 1787750041 | 14.44° C | 66% | 1018.2 hPa | 0 mm | - | 0 W/m² | - |
| 1787749737 | 14.44° C | 66% | 1018.2 hPa | 0 mm | - | 0 W/m² | - |
| 1787749432 | 13.89° C | 66% | 1018.1 hPa | 0 mm | - | 0 W/m² | - |
| 1787749132 | 13.89° C | 66% | 1018 hPa | 0 mm | - | 0 W/m² | - |
| 1787748827 | 13.89° C | 66% | 1018.1 hPa | 0 mm | - | 0 W/m² | - |
| 1787748526 | 13.89° C | 66% | 1018.2 hPa | 0 mm | - | 0 W/m² | - |
| 1787748223 | 13.89° C | 66% | 1018.2 hPa | 0 mm | - | 0 W/m² | - |
| 1787747923 | 14.44° C | 65% | 1018.3 hPa | 0 mm | - | 0 W/m² | - |
| 1787747618 | 14.44° C | 64% | 1018.1 hPa | 0 mm | - | 0 W/m² | - |
* Rain latest hour (hover to see other rain measurements)
** Current wind speed in m/s (hover to see current wind gust speed)